createdAt,value
2018-07-24T00:00:20.090Z,100882.64
2018-07-24T00:01:20.886Z,100882.12
2018-07-24T00:02:21.663Z,100882.19
2018-07-24T00:03:22.474Z,100881.79
2018-07-24T00:04:22.221Z,100881.02
2018-07-24T00:05:23.997Z,100880.92
2018-07-24T00:06:24.840Z,100880.85
2018-07-24T00:07:24.572Z,100880.96
2018-07-24T00:08:26.353Z,100880.94
2018-07-24T00:09:26.139Z,100880.98
2018-07-24T00:10:27.907Z,100880.74
2018-07-24T00:11:28.755Z,100880.32
2018-07-24T00:12:28.486Z,100880.55
2018-07-24T00:13:30.275Z,100880.69
2018-07-24T00:14:31.040Z,100880.63
2018-07-24T00:15:31.820Z,100880.83
2018-07-24T00:16:32.628Z,100880.30
2018-07-24T00:17:33.398Z,100880.13
2018-07-24T00:18:34.184Z,100880.25
2018-07-24T00:19:34.960Z,100880.29
2018-07-24T00:20:35.747Z,100880.38
2018-07-24T00:21:36.544Z,100879.91
2018-07-24T00:22:37.320Z,100879.69
2018-07-24T00:23:38.107Z,100879.12
2018-07-24T00:24:38.872Z,100878.34
2018-07-24T00:25:39.646Z,100877.70
2018-07-24T00:26:40.461Z,100877.30
2018-07-24T00:27:41.231Z,100877.05
2018-07-24T00:28:42.434Z,100876.91
2018-07-24T00:29:42.717Z,100876.89
2018-07-24T16:28:11.071Z,100372.50
2018-07-24T16:29:11.860Z,100372.50
2018-07-24T16:30:12.626Z,100372.44
2018-07-24T16:31:13.402Z,100372.05
2018-07-24T16:32:14.177Z,100372.00
2018-07-24T16:33:14.985Z,100372.17
2018-07-24T16:34:15.768Z,100371.82
2018-07-24T16:35:16.618Z,100371.94
2018-07-24T16:36:16.323Z,100371.84
2018-07-24T16:37:18.218Z,100372.14
2018-07-24T16:38:17.907Z,100371.73
2018-07-24T16:39:19.693Z,100371.91
2018-07-24T16:40:20.461Z,100372.02
2018-07-24T16:41:21.241Z,100372.02
2018-07-24T16:42:22.013Z,100372.02
2018-07-24T16:43:22.839Z,100371.91
2018-07-24T16:44:23.625Z,100372.08
2018-07-24T16:45:24.390Z,100372.20
2018-07-24T16:46:25.174Z,100372.41
2018-07-24T16:47:26.958Z,100372.58
2018-07-24T16:48:26.752Z,100372.73
2018-07-24T16:49:27.545Z,100372.55
2018-07-24T16:50:28.347Z,100372.07
2018-07-24T16:51:28.106Z,100371.63
2018-07-24T16:52:29.879Z,100372.17
2018-07-24T16:53:30.686Z,100371.67
2018-07-24T16:54:31.470Z,100371.35
2018-07-24T16:55:32.247Z,100370.85
2018-07-24T16:56:33.022Z,100370.98
2018-07-24T16:57:33.799Z,100370.78
2018-07-24T16:58:34.606Z,100370.80
2018-07-24T16:59:35.395Z,100370.56
2018-07-24T17:00:36.165Z,100370.56
2018-07-24T17:01:36.944Z,100370.45
2018-07-24T17:02:37.718Z,100370.09
2018-07-24T17:03:38.539Z,100370.05
2018-07-24T17:04:39.312Z,100369.98
2018-07-24T17:05:40.087Z,100369.91
2018-07-24T17:06:40.870Z,100369.84
2018-07-24T17:07:41.645Z,100369.72
2018-07-24T17:08:42.448Z,100369.64
2018-07-24T17:09:43.225Z,100369.91
2018-07-24T17:10:44.009Z,100369.77
2018-07-24T17:11:44.803Z,100369.95
2018-07-24T17:12:45.576Z,100370.00
2018-07-24T17:13:46.447Z,100370.35
2018-07-24T17:14:46.148Z,100370.22
2018-07-24T17:15:47.925Z,100370.23
2018-07-24T17:16:48.703Z,100370.72
2018-07-24T17:17:49.473Z,100371.28
2018-07-24T17:18:50.284Z,100371.52
2018-07-24T17:19:51.063Z,100371.87
2018-07-24T17:20:50.834Z,100372.15
2018-07-24T17:21:52.614Z,100372.61
2018-07-24T17:22:53.392Z,100372.64
2018-07-24T17:23:54.199Z,100373.06
2018-07-24T17:24:54.975Z,100373.42
2018-07-24T17:25:55.748Z,100373.89
2018-07-24T17:26:57.533Z,100374.00
2018-07-24T17:27:57.307Z,100374.31
2018-07-24T17:28:58.113Z,100374.69
2018-07-24T17:29:58.896Z,100375.03
2018-07-24T17:30:59.673Z,100375.38
2018-07-24T17:32:00.445Z,100375.82
2018-07-24T17:33:01.222Z,100376.20
2018-07-24T17:34:02.032Z,100376.52
2018-07-24T17:35:02.801Z,100376.98
2018-07-24T17:36:03.678Z,100377.44
2018-07-24T17:37:03.375Z,100377.59
2018-07-24T17:38:05.152Z,100378.11
2018-07-24T17:39:05.965Z,100378.52
2018-07-24T17:40:06.743Z,100379.26
2018-07-24T17:41:07.527Z,100379.27
2018-07-24T17:42:08.305Z,100379.06
2018-07-24T17:43:09.074Z,100379.45
2018-07-24T17:44:09.883Z,100379.97
2018-07-24T17:45:10.659Z,100379.81
2018-07-24T17:46:11.440Z,100379.86
2018-07-24T17:47:12.218Z,100379.94
2018-07-24T17:48:13.102Z,100380.42
2018-07-24T17:49:12.810Z,100380.49
2018-07-24T17:50:14.587Z,100380.48
2018-07-24T17:51:15.380Z,100380.53
2018-07-24T17:52:15.139Z,100380.84
2018-07-24T17:53:16.992Z,100381.24
2018-07-24T17:54:16.728Z,100382.00
2018-07-24T17:55:18.498Z,100382.73
2018-07-24T17:56:19.278Z,100382.95
2018-07-24T17:57:20.057Z,100383.81
2018-07-24T17:58:20.831Z,100384.17
2018-07-24T17:59:21.639Z,100385.19
2018-07-24T18:00:22.425Z,100385.72
2018-07-24T18:01:23.204Z,100386.86
2018-07-24T18:02:23.977Z,100387.48
2018-07-24T18:03:24.756Z,100388.10
2018-07-24T18:04:25.573Z,100388.64
2018-07-24T18:05:26.343Z,100389.03
2018-07-24T18:06:27.119Z,100389.87
2018-07-24T18:07:27.940Z,100389.95
2018-07-24T18:08:27.677Z,100390.45
2018-07-24T18:09:30.481Z,100390.73
2018-07-24T18:10:30.258Z,100391.05
2018-07-24T18:11:31.049Z,100391.11
2018-07-24T18:12:31.816Z,100391.55
2018-07-24T18:13:32.597Z,100391.51
2018-07-24T18:14:33.397Z,100391.91
2018-07-24T18:15:34.213Z,100392.38
2018-07-24T18:16:33.955Z,100393.05
2018-07-24T18:17:35.734Z,100393.41
2018-07-24T18:18:36.518Z,100393.89
2018-07-24T18:19:37.321Z,100394.58
2018-07-24T18:20:38.180Z,100395.13
2018-07-24T18:21:37.888Z,100395.92
2018-07-24T18:22:39.664Z,100396.64
2018-07-24T18:23:40.440Z,100396.87
2018-07-24T18:24:41.247Z,100397.94
2018-07-24T18:25:43.809Z,100397.89
2018-07-24T18:26:53.041Z,100404.93
2018-07-24T18:27:53.903Z,100403.99
2018-07-24T18:28:53.597Z,100403.99
2018-07-24T18:29:55.398Z,100404.34
2018-07-24T18:30:56.171Z,100403.52
2018-07-24T18:31:56.968Z,100403.66
2018-07-24T18:32:57.724Z,100403.59
2018-07-24T18:33:58.501Z,100403.45
2018-07-24T18:34:59.349Z,100403.53
2018-07-24T18:36:00.098Z,100403.41
2018-07-24T18:37:00.873Z,100403.08
2018-07-24T18:38:01.652Z,100403.64
2018-07-24T18:39:02.514Z,100404.05
2018-07-24T18:40:02.244Z,100404.45
2018-07-24T18:41:04.019Z,100405.20
2018-07-24T18:42:04.798Z,100405.55
2018-07-24T18:43:05.573Z,100406.20
2018-07-24T18:44:06.351Z,100406.37
2018-07-24T18:45:07.153Z,100406.53
2018-07-24T18:46:08.924Z,100407.08
2018-07-24T18:47:08.701Z,100406.63
2018-07-24T18:48:10.473Z,100407.28
2018-07-24T18:49:10.250Z,100407.66
2018-07-24T18:50:11.059Z,100407.90
2018-07-24T18:51:11.833Z,100408.27
2018-07-24T18:52:12.625Z,100409.14
2018-07-24T18:53:13.434Z,100409.59
2018-07-24T18:54:13.174Z,100410.32
2018-07-24T18:55:15.003Z,100410.66
2018-07-24T18:56:15.764Z,100411.18
2018-07-24T18:57:16.548Z,100411.28
2018-07-24T18:58:17.317Z,100412.64
2018-07-24T18:59:18.119Z,100412.81
2018-07-24T19:00:18.894Z,100413.30
2018-07-24T19:01:19.846Z,100413.83
2018-07-24T19:02:19.451Z,100414.52
2018-07-24T19:03:21.227Z,100414.69
2018-07-24T19:04:22.005Z,100415.39
2018-07-24T19:05:22.836Z,100415.11
2018-07-24T19:06:22.600Z,100415.56
2018-07-24T19:07:24.374Z,100416.42
2018-07-24T19:08:25.156Z,100416.59
2018-07-24T19:09:25.925Z,100416.52
2018-07-24T19:10:27.727Z,100417.21
2018-07-24T19:11:27.511Z,100417.03
2018-07-24T19:12:28.287Z,100417.27
2018-07-24T19:13:29.070Z,100417.84
2018-07-24T19:14:29.844Z,100418.05
2018-07-24T19:15:29.652Z,100419.12
2018-07-24T19:16:31.430Z,100419.80
2018-07-24T19:17:33.208Z,100420.25
2018-07-24T19:18:32.986Z,100420.72
2018-07-24T19:19:33.765Z,100421.52
2018-07-24T19:20:34.571Z,100422.55
2018-07-24T19:21:35.435Z,100423.34
2018-07-24T19:22:35.132Z,100424.33
2018-07-24T19:23:36.920Z,100425.22
2018-07-24T19:24:37.693Z,100426.01
2018-07-24T19:25:38.496Z,100426.48
2018-07-24T19:26:39.357Z,100427.50
2018-07-24T19:27:39.060Z,100428.91
2018-07-24T19:28:40.835Z,100429.73
2018-07-24T19:29:41.615Z,100430.86
2018-07-24T19:30:42.430Z,100431.41
2018-07-24T19:31:43.206Z,100432.70
2018-07-24T19:32:44.983Z,100433.24
2018-07-24T19:33:44.842Z,100434.41
2018-07-24T19:34:44.557Z,100435.01
2018-07-24T19:35:46.354Z,100436.20
2018-07-24T19:36:46.135Z,100436.87
2018-07-24T19:37:47.908Z,100437.72
2018-07-24T19:38:47.681Z,100439.16
2018-07-24T19:39:49.466Z,100439.82
2018-07-24T19:40:50.274Z,100440.84
2018-07-24T19:41:51.056Z,100442.27
2018-07-24T19:42:51.838Z,100443.32
2018-07-24T19:43:52.697Z,100444.58
2018-07-24T19:44:52.379Z,100445.52
2018-07-24T19:45:54.180Z,100446.57
2018-07-24T19:46:54.953Z,100447.72
2018-07-24T19:47:55.732Z,100448.77
2018-07-24T19:48:56.533Z,100449.84
2018-07-24T19:49:57.307Z,100450.75
2018-07-24T19:50:58.114Z,100451.34
2018-07-24T19:51:58.907Z,100452.20
2018-07-24T19:52:59.674Z,100453.08
2018-07-24T19:54:00.533Z,100454.09
2018-07-24T19:55:00.240Z,100454.92
2018-07-24T19:56:02.108Z,100455.83
2018-07-24T19:57:01.829Z,100456.55
2018-07-24T19:58:03.599Z,100457.45
2018-07-24T19:59:04.458Z,100458.49
2018-07-24T20:00:04.160Z,100459.56
2018-07-24T20:01:05.967Z,100460.05
2018-07-24T20:02:06.746Z,100460.60
2018-07-24T20:03:07.570Z,100461.54
2018-07-24T20:04:07.316Z,100462.23
2018-07-24T20:05:09.084Z,100463.41
2018-07-24T20:06:09.893Z,100464.37
2018-07-24T20:07:10.684Z,100465.09
2018-07-24T20:08:11.452Z,100466.30
2018-07-24T20:09:12.237Z,100466.61
2018-07-24T20:10:13.076Z,100467.95
2018-07-24T20:11:12.808Z,100468.56
2018-07-24T20:12:14.590Z,100470.01
2018-07-24T20:13:15.445Z,100471.11
2018-07-24T20:14:15.146Z,100471.34
2018-07-24T20:15:16.927Z,100472.16
2018-07-24T20:16:17.738Z,100472.98
2018-07-24T20:17:18.511Z,100473.52
2018-07-24T20:18:19.289Z,100474.52
2018-07-24T20:19:20.065Z,100475.47
2018-07-24T20:20:20.843Z,100476.74
2018-07-24T20:21:21.654Z,100477.08
2018-07-24T20:22:22.434Z,100478.25
2018-07-24T20:23:23.422Z,100478.95
2018-07-24T20:24:23.065Z,100479.95
2018-07-24T20:25:23.775Z,100481.08
2018-07-24T20:26:25.596Z,100481.97
2018-07-24T20:27:26.363Z,100483.06
2018-07-24T20:28:27.138Z,100484.37
2018-07-24T20:29:27.914Z,100485.50
2018-07-24T20:30:28.690Z,100486.03
2018-07-24T20:31:32.440Z,100487.09
2018-07-24T20:50:37.034Z,100509.29
2018-07-24T20:51:37.824Z,100508.91
2018-07-24T20:52:38.604Z,100509.18
2018-07-24T20:53:39.389Z,100508.69
2018-07-24T20:54:40.143Z,100509.03
2018-07-24T20:55:41.293Z,100508.34
2018-07-24T20:56:40.256Z,100508.41
2018-07-24T20:57:40.958Z,100508.09
2018-07-24T20:58:42.733Z,100507.63
2018-07-24T20:59:43.506Z,100507.28
2018-07-24T21:00:43.310Z,100507.48
2018-07-24T21:01:45.329Z,100507.65
2018-07-24T21:02:45.165Z,100507.74
2018-07-24T21:03:47.103Z,100507.80
2018-07-24T21:04:47.143Z,100508.07
2018-07-24T21:05:47.305Z,100507.44
2018-07-24T21:06:47.302Z,100507.70
2018-07-24T21:07:48.195Z,100507.48
2018-07-24T21:08:49.058Z,100507.54
2018-07-24T21:09:51.067Z,100508.01
2018-07-24T21:10:51.265Z,100508.16
2018-07-24T21:11:51.313Z,100507.60
2018-07-24T21:12:51.358Z,100507.66
2018-07-24T21:13:51.376Z,100508.27
2018-07-24T21:14:51.335Z,100508.64
2018-07-24T21:15:52.641Z,100508.31
2018-07-24T21:16:52.653Z,100508.44
2018-07-24T21:17:52.673Z,100508.46
2018-07-24T21:18:52.695Z,100508.90
2018-07-24T21:19:52.666Z,100509.34
2018-07-24T21:20:53.483Z,100509.32
2018-07-24T21:21:54.193Z,100509.55
2018-07-24T21:22:56.155Z,100510.04
2018-07-24T21:23:56.138Z,100510.75
2018-07-24T21:24:57.195Z,100511.52
2018-07-24T21:25:57.367Z,100511.61
2018-07-24T21:26:57.345Z,100511.86
2018-07-24T21:27:58.386Z,100512.47
2018-07-24T21:28:58.399Z,100512.83
2018-07-24T21:29:58.323Z,100513.42
2018-07-24T21:30:59.443Z,100513.61
2018-07-24T21:31:59.419Z,100513.72
2018-07-24T21:33:00.449Z,100514.14
2018-07-24T21:34:00.489Z,100514.33
2018-07-24T21:35:00.501Z,100514.92
2018-07-24T21:36:00.536Z,100514.96
2018-07-24T21:37:00.819Z,100515.38
2018-07-24T21:38:00.749Z,100515.67
2018-07-24T21:39:01.677Z,100515.81
2018-07-24T21:40:02.689Z,100516.69
2018-07-24T21:41:02.717Z,100516.93
2018-07-24T21:42:02.892Z,100517.11
2018-07-24T21:43:02.906Z,100517.25
2018-07-24T21:44:02.922Z,100517.95
2018-07-24T21:45:02.932Z,100518.13
2018-07-24T21:46:02.918Z,100519.08
2018-07-24T21:47:04.055Z,100519.44
2018-07-24T21:48:04.090Z,100520.45
2018-07-24T21:49:04.102Z,100520.67
2018-07-24T21:50:04.907Z,100521.76
2018-07-24T21:51:05.925Z,100522.47
2018-07-24T21:52:06.084Z,100523.70
2018-07-24T21:53:06.017Z,100524.95
2018-07-24T21:54:07.042Z,100525.59
2018-07-24T21:55:06.740Z,100526.67
2018-07-24T21:56:08.757Z,100527.56
2018-07-24T21:57:08.734Z,100528.50
2018-07-24T21:58:09.657Z,100529.55
2018-07-24T21:59:10.620Z,100530.24
2018-07-24T22:00:11.628Z,100531.11
2018-07-24T22:01:12.601Z,100532.33
2018-07-24T22:02:13.638Z,100532.89
2018-07-24T22:03:13.614Z,100533.58
2018-07-24T22:04:14.578Z,100534.31
2018-07-24T22:05:15.543Z,100535.31
2018-07-24T22:06:16.246Z,100536.11
2018-07-24T22:07:18.144Z,100537.45
2018-07-24T22:08:17.850Z,100538.08
2018-07-24T22:09:19.630Z,100538.47
2018-07-24T22:10:20.580Z,100539.36
2018-07-24T22:11:20.629Z,100540.11
2018-07-24T22:12:20.766Z,100541.25
2018-07-24T22:13:20.784Z,100541.95
2018-07-24T22:14:20.774Z,100542.37
2018-07-24T22:15:20.811Z,100543.06
2018-07-24T22:16:20.838Z,100543.72
2018-07-24T22:17:20.877Z,100544.41
2018-07-24T22:18:21.101Z,100545.09
2018-07-24T22:19:21.078Z,100545.84
2018-07-24T22:20:22.109Z,100545.73
2018-07-24T22:21:22.066Z,100546.88
2018-07-24T22:22:22.986Z,100547.14
2018-07-24T22:23:24.220Z,100547.39
2018-07-24T22:24:24.147Z,100548.23
2018-07-24T22:25:25.174Z,100548.94
2018-07-24T22:26:27.161Z,100549.88
2018-07-24T22:27:26.170Z,100550.31
2018-07-24T22:28:26.457Z,100550.92
2018-07-24T22:29:26.380Z,100551.73
2018-07-24T22:30:27.390Z,100551.40
2018-07-24T22:31:27.346Z,100551.83
2018-07-24T22:32:28.386Z,100551.45
2018-07-24T22:33:28.534Z,100551.57
2018-07-24T22:34:28.544Z,100551.96
2018-07-24T22:35:28.514Z,100551.73
2018-07-24T22:36:29.520Z,100551.70
2018-07-24T22:37:29.561Z,100551.72
2018-07-24T22:38:29.577Z,100552.16
2018-07-24T22:39:29.848Z,100552.30
2018-07-24T22:40:29.854Z,100552.31
2018-07-24T22:41:29.786Z,100552.40
2018-07-24T22:42:30.809Z,100553.08
2018-07-24T22:43:31.799Z,100553.16
2018-07-24T22:44:32.126Z,100552.83
2018-07-24T22:45:32.159Z,100553.43
2018-07-24T22:46:31.860Z,100553.69
2018-07-24T22:47:33.636Z,100554.67
2018-07-24T22:48:34.416Z,100554.59
2018-07-24T22:49:35.214Z,100554.84
2018-07-24T22:50:35.990Z,100554.95
2018-07-24T22:51:36.765Z,100554.68
2018-07-24T22:52:37.538Z,100555.07
2018-07-24T22:53:38.315Z,100554.91
2018-07-24T22:54:39.118Z,100555.52
2018-07-24T22:55:39.890Z,100555.59
2018-07-24T22:56:40.722Z,100556.13
2018-07-24T22:57:40.440Z,100556.69
2018-07-24T22:58:42.217Z,100557.05
2018-07-24T22:59:43.018Z,100557.88
2018-07-24T23:00:43.798Z,100558.34
2018-07-24T23:01:44.582Z,100558.23
2018-07-24T23:02:45.355Z,100558.80
2018-07-24T23:03:46.139Z,100559.57
2018-07-24T23:04:46.930Z,100559.58
2018-07-24T23:05:47.700Z,100559.72
2018-07-24T23:06:48.479Z,100559.80
2018-07-24T23:07:49.247Z,100560.20
2018-07-24T23:08:50.030Z,100559.92
2018-07-24T23:09:50.827Z,100559.84
2018-07-24T23:10:51.603Z,100560.52
2018-07-24T23:11:52.375Z,100560.18
2018-07-24T23:12:53.155Z,100560.17
2018-07-24T23:13:53.926Z,100559.97
2018-07-24T23:14:54.730Z,100559.98
2018-07-24T23:15:55.505Z,100559.69
2018-07-24T23:16:56.337Z,100559.94
2018-07-24T23:17:56.061Z,100559.78
2018-07-24T23:18:57.841Z,100559.62
2018-07-24T23:19:58.644Z,100559.14
2018-07-24T23:20:59.504Z,100558.39
2018-07-24T23:21:59.207Z,100558.19
2018-07-24T23:23:00.983Z,100557.91
2018-07-24T23:24:02.758Z,100557.81
2018-07-24T23:25:02.564Z,100557.30
2018-07-24T23:26:03.343Z,100557.29
2018-07-24T23:27:04.121Z,100557.38
2018-07-24T23:28:04.895Z,100557.70
2018-07-24T23:29:05.672Z,100557.78
2018-07-24T23:30:06.480Z,100558.28
2018-07-24T23:31:07.258Z,100557.95
2018-07-24T23:32:08.033Z,100557.96
2018-07-24T23:33:08.812Z,100558.34
2018-07-24T23:34:09.581Z,100558.36
2018-07-24T23:35:10.382Z,100558.54
2018-07-24T23:36:11.159Z,100558.92
2018-07-24T23:37:11.930Z,100559.11
2018-07-24T23:38:12.707Z,100559.53
2018-07-24T23:39:13.483Z,100560.06
2018-07-24T23:40:14.282Z,100560.27
2018-07-24T23:41:15.057Z,100560.95
2018-07-24T23:42:15.831Z,100561.55
2018-07-24T23:43:16.612Z,100562.19
2018-07-24T23:44:17.396Z,100562.61
2018-07-24T23:45:18.200Z,100563.45
2018-07-24T23:46:18.984Z,100563.95
2018-07-24T23:47:19.753Z,100564.28
2018-07-24T23:48:20.537Z,100564.61
2018-07-24T23:49:21.308Z,100565.33
2018-07-24T23:50:22.119Z,100565.83
2018-07-24T23:51:22.896Z,100566.16
2018-07-24T23:52:23.678Z,100566.92
2018-07-24T23:53:24.462Z,100567.03
2018-07-24T23:54:25.228Z,100567.77
2018-07-24T23:55:26.035Z,100568.63
2018-07-24T23:56:26.809Z,100568.60
2018-07-24T23:57:27.587Z,100569.53
2018-07-24T23:58:28.436Z,100570.11
2018-07-24T23:59:28.148Z,100570.14
